메인 페이지
METAR-TAF:

METAR-TAF

공항 :

Minna, 나이지리아

위도: 9-37N, 경도: 6-32E, 고도: 260m

현재 날씨관측

예보는 4 시간 29분 전, 05:00시(UTC)에 발표되었습니다.
남남동10kt
온도 23°C
습도 89%
기압 1014 hPa
시정 10km 이상
고도 900ft 상공 구름 조금
고도 2000ft 상공 구름 조금, 적란운.
뇌우

METAR: DNMN 020500Z 16010KT 9999 TS FEW009 FEW020CB 23/21 Q1014

시각: 10:29 (09:29 UTC)

예보

예보는 28 시간 29분 전, 05:00시(UTC)에 발표되었습니다.
예보 대상 시간: 31일 06시부터 01일 12시까지 (UTC)
동남동11kt
시정 10km 이상
1500m 미만 상공 구름 및 적란운 없음
전환 중
31일 08시부터 31일 10시까지 (UTC)
서남서6kt
고도 1200ft 상공 구름 많음
확률 30% :
일시적
31일 17시부터 31일 21시까지 (UTC)
고도 1200ft 상공 구름 보통
고도 2000ft 상공 구름 조금, 적란운.
뇌우
전환 중
31일 21시부터 31일 23시까지 (UTC)
동남동10kt
시정 10km 이상
1500m 미만 상공 구름 및 적란운 없음

TAF: DNMN 310500Z 3106/0112 12011KT CAVOK BECMG 3108/3110 24006KT BKN012 PROB30 TEMPO 3117/3121 TS SCT012 FEW020CB BECMG 3121/3123 12010KT CAVOK

4,000개 이상의 공항 관측 자료 및 예보 (METAR 및 TAF 보고).

지도상에서 검색 가능한 기상관측소가 노란 점과 빨간 점으로 표시되어 있습니다.

기상관측소 명을 보려면 표시 위로 마우스를 이동하세요.

날씨 관측과 예보를 보려면 클릭하세요.

지도 변경 : 확대하려면 엑스 표시가 있는 녹색 버튼, 축소하려면 빼기 표시가 있는 녹색 버튼, 다음 페이지의 지도를 보려면 녹색 화살표를 클릭하세요.


METAR-TAF: